Time;durP1;ratioP1;P1;durP2;ratioP2;P2;SDS_P1;SDS_P2;PMS_P1;PMS_P2;Temp;Humidity;BMP_temperature;BMP_pressure;BME280_temperature;BME280_humidity;BME280_pressure;Samples;Min_cycle;Max_cycle;Signal;HPM_P1;HPM_P2
2023/02/02 00:00:58;;;;;;;3.47;0.50;;;4.30;99.90;;;;;;4819888;29;20041;-87
2023/02/02 00:03:24;;;;;;;1.70;0.37;;;4.20;99.90;;;;;;4816548;29;20117;-87
2023/02/02 00:05:52;;;;;;;4.37;0.83;;;4.20;99.90;;;;;;4819481;29;20026;-87
2023/02/02 00:08:20;;;;;;;2.70;0.57;;;4.20;99.90;;;;;;4822405;29;20042;-88
2023/02/02 00:10:46;;;;;;;1.03;0.50;;;4.20;99.90;;;;;;4816154;29;20039;-87
2023/02/02 00:13:12;;;;;;;7.03;0.73;;;4.20;99.90;;;;;;4821868;29;20065;-88
2023/02/02 00:15:38;;;;;;;3.57;0.50;;;4.20;99.90;;;;;;4824896;29;20038;-87
2023/02/02 00:18:04;;;;;;;4.33;0.43;;;4.10;99.90;;;;;;4820498;29;20055;-88
2023/02/02 00:20:33;;;;;;;4.20;0.40;;;4.10;99.90;;;;;;4818414;29;20023;-87
2023/02/02 00:22:59;;;;;;;5.03;0.73;;;4.10;99.90;;;;;;4821745;29;20027;-88
2023/02/02 00:25:24;;;;;;;3.33;0.30;;;4.10;99.90;;;;;;4814885;29;20130;-87
2023/02/02 00:27:50;;;;;;;2.70;0.30;;;4.10;99.90;;;;;;4823142;29;20480;-87
2023/02/02 00:30:16;;;;;;;3.50;0.47;;;4.10;99.90;;;;;;4825361;29;20041;-88
2023/02/02 00:32:41;;;;;;;2.03;0.60;;;4.10;99.90;;;;;;4830196;29;20026;-87
2023/02/02 00:35:08;;;;;;;4.47;0.50;;;4.10;99.90;;;;;;4827980;29;20061;-87
2023/02/02 00:37:34;;;;;;;4.87;0.57;;;4.10;99.90;;;;;;4828210;29;20555;-88
2023/02/02 00:39:59;;;;;;;3.40;0.43;;;3.90;99.90;;;;;;4824850;29;20113;-87
2023/02/02 00:42:25;;;;;;;4.67;0.60;;;4.10;99.90;;;;;;4826337;29;20053;-88
2023/02/02 00:47:36;;;;;;;2.00;0.50;;;4.10;99.90;;;;;;4821508;29;20037;-87
2023/02/02 00:50:02;;;;;;;2.37;0.50;;;4.10;99.90;;;;;;4823917;29;20034;-88
2023/02/02 00:52:27;;;;;;;3.10;0.40;;;4.10;99.90;;;;;;4820559;29;20372;-87
2023/02/02 00:54:53;;;;;;;4.10;0.40;;;4.10;99.90;;;;;;4824432;29;20058;-88
2023/02/02 00:57:19;;;;;;;9.63;0.70;;;4.10;99.90;;;;;;4825125;29;20050;-87
2023/02/02 00:59:44;;;;;;;1.37;0.33;;;4.10;99.90;;;;;;4823818;29;20030;-88
2023/02/02 01:02:11;;;;;;;2.23;0.50;;;4.10;99.90;;;;;;4821371;29;20117;-89
2023/02/02 01:04:37;;;;;;;2.33;0.40;;;4.10;99.90;;;;;;4824702;29;20026;-88
2023/02/02 01:07:02;;;;;;;4.07;0.30;;;4.90;99.90;;;;;;4820778;29;20037;-88
2023/02/02 01:09:28;;;;;;;1.40;0.40;;;4.20;99.90;;;;;;4824557;29;20038;-88
2023/02/02 01:11:56;;;;;;;2.03;0.40;;;4.10;99.90;;;;;;4825307;29;20022;-87
2023/02/02 01:14:22;;;;;;;1.10;0.37;;;4.20;99.90;;;;;;4825541;29;20428;-87
2023/02/02 01:16:47;;;;;;;1.07;0.30;;;4.20;99.90;;;;;;4823339;29;20176;-88
2023/02/02 01:19:14;;;;;;;2.13;0.53;;;3.80;99.90;;;;;;4820551;29;20034;-88
2023/02/02 01:21:40;;;;;;;3.73;0.50;;;4.10;99.90;;;;;;4824288;29;20044;-88
2023/02/02 01:24:06;;;;;;;4.67;0.50;;;4.30;99.90;;;;;;4819674;29;20544;-87
2023/02/02 01:26:32;;;;;;;3.83;0.40;;;4.10;99.90;;;;;;4824193;29;20122;-87
2023/02/02 01:28:57;;;;;;;2.97;0.70;;;4.10;99.90;;;;;;4825022;29;20029;-88
2023/02/02 01:31:23;;;;;;;2.47;0.47;;;4.10;99.90;;;;;;4823830;29;20026;-87
2023/02/02 01:33:49;;;;;;;1.80;0.37;;;4.10;99.90;;;;;;4820418;29;20499;-87
2023/02/02 01:36:18;;;;;;;1.17;0.40;;;4.10;99.90;;;;;;4824947;29;20062;-88
2023/02/02 01:38:44;;;;;;;1.13;0.30;;;4.10;99.90;;;;;;4824788;29;20034;-88
2023/02/02 01:41:16;;;;;;;0.63;0.20;;;4.00;99.90;;;;;;4821446;29;20027;-87
2023/02/02 01:43:44;;;;;;;1.50;0.22;;;4.10;99.90;;;;;;4823539;29;20562;-87
2023/02/02 01:46:18;;;;;;;1.87;0.63;;;4.10;99.90;;;;;;4822797;29;20037;-87
2023/02/02 01:48:52;;;;;;;1.33;0.40;;;4.00;99.90;;;;;;4824707;29;20035;-87
2023/02/02 01:51:22;;;;;;;1.60;0.20;;;4.00;99.90;;;;;;4824370;29;20035;-87
2023/02/02 01:53:50;;;;;;;0.43;0.10;;;4.00;99.90;;;;;;4824917;29;20062;-87
2023/02/02 01:56:30;;;;;;;3.33;0.50;;;4.00;99.90;;;;;;4825221;29;20055;-87
2023/02/02 01:58:58;;;;;;;2.80;0.30;;;4.00;99.90;;;;;;4825021;29;20030;-88
2023/02/02 02:01:24;;;;;;;5.67;0.47;;;4.00;99.90;;;;;;4825347;29;20015;-87
2023/02/02 02:03:50;;;;;;;1.77;0.30;;;4.00;99.90;;;;;;4825812;29;20027;-88
2023/02/02 02:06:17;;;;;;;0.33;0.17;;;4.00;99.90;;;;;;4824376;29;20040;-87
2023/02/02 02:08:53;;;;;;;1.07;0.20;;;4.00;99.90;;;;;;4825643;29;20037;-87
2023/02/02 02:11:20;;;;;;;1.50;0.30;;;4.00;99.90;;;;;;4825213;29;20044;-87
2023/02/02 02:17:04;;;;;;;0.67;0.30;;;4.10;99.90;;;;;;4822365;29;20042;-87
2023/02/02 02:29:31;;;;;;;2.50;0.50;;;4.30;99.90;;;;;;4821379;29;20037;-87
2023/02/02 02:32:32;;;;;;;3.77;0.20;;;4.30;99.90;;;;;;4830178;29;20046;-87
2023/02/02 02:35:30;;;;;;;6.17;0.30;;;4.40;99.90;;;;;;4825011;29;20039;-87
2023/02/02 02:38:22;;;;;;;2.13;0.50;;;4.40;99.90;;;;;;4824573;29;20041;-87
2023/02/02 02:40:55;;;;;;;2.08;0.20;;;4.50;99.90;;;;;;4821429;29;20030;-87
2023/02/02 02:43:35;;;;;;;0.43;0.10;;;4.50;99.90;;;;;;4826314;29;20050;-87
2023/02/02 02:46:02;;;;;;;2.37;0.37;;;4.60;99.90;;;;;;4822838;29;20523;-87
2023/02/02 02:48:28;;;;;;;2.93;0.57;;;4.60;99.90;;;;;;4824151;29;20397;-87
2023/02/02 02:51:07;;;;;;;7.23;0.30;;;4.60;99.90;;;;;;4823489;29;20460;-87
2023/02/02 02:53:35;;;;;;;3.03;0.80;;;4.80;99.90;;;;;;4817413;29;20026;-87
2023/02/02 02:56:15;;;;;;;1.43;0.30;;;4.60;99.90;;;;;;4826368;29;20034;-88
2023/02/02 02:59:00;;;;;;;0.17;0.10;;;4.80;99.90;;;;;;4818242;29;20027;-87
2023/02/02 03:01:42;;;;;;;1.07;0.47;;;4.70;99.90;;;;;;4824622;29;20026;-87
2023/02/02 03:04:21;;;;;;;1.27;0.10;;;4.70;99.90;;;;;;4823410;29;20048;-87
2023/02/02 03:07:08;;;;;;;1.70;0.30;;;4.70;99.90;;;;;;4816218;29;20104;-87
2023/02/02 03:09:39;;;;;;;2.20;0.20;;;4.70;99.90;;;;;;4831789;29;20516;-87
2023/02/02 03:12:05;;;;;;;1.53;0.30;;;4.60;99.90;;;;;;4813432;29;20050;-87
2023/02/02 03:14:38;;;;;;;1.27;0.20;;;4.70;99.90;;;;;;4822152;29;20035;-88
2023/02/02 03:17:03;;;;;;;0.77;0.30;;;4.70;99.90;;;;;;4819870;29;20035;-87
2023/02/02 03:19:29;;;;;;;0.70;0.20;;;4.90;99.90;;;;;;4823049;29;20122;-87
2023/02/02 03:21:55;;;;;;;1.30;0.30;;;4.80;99.90;;;;;;4822805;29;20034;-87
2023/02/02 03:24:20;;;;;;;1.03;0.17;;;4.80;99.90;;;;;;4827154;29;20045;-87
2023/02/02 03:26:46;;;;;;;2.50;0.23;;;4.80;99.90;;;;;;4838040;29;20031;-87
2023/02/02 03:29:15;;;;;;;0.77;0.20;;;4.80;99.90;;;;;;4823365;29;20030;-87
2023/02/02 03:31:41;;;;;;;0.20;0.10;;;4.80;99.90;;;;;;4816575;29;20038;-87
2023/02/02 03:34:06;;;;;;;1.07;0.30;;;4.70;99.90;;;;;;4823839;29;20030;-87
2023/02/02 03:36:32;;;;;;;2.57;0.30;;;4.80;99.90;;;;;;4818059;29;20522;-87
2023/02/02 03:38:58;;;;;;;0.10;0.00;;;4.70;99.90;;;;;;4824079;29;20030;-87
2023/02/02 03:41:24;;;;;;;1.40;0.20;;;4.80;99.90;;;;;;4824025;29;20034;-87
2023/02/02 03:43:49;;;;;;;1.33;0.10;;;4.90;99.90;;;;;;4819381;29;20033;-87
2023/02/02 03:46:15;;;;;;;1.53;0.20;;;5.00;99.90;;;;;;4823186;29;20030;-87
2023/02/02 03:48:54;;;;;;;2.20;0.20;;;4.90;99.90;;;;;;4822755;29;20050;-87
2023/02/02 03:51:20;;;;;;;3.63;0.17;;;4.80;99.90;;;;;;4823643;29;20407;-88
2023/02/02 03:53:46;;;;;;;0.47;0.20;;;4.80;99.90;;;;;;4821941;29;20014;-87
2023/02/02 03:56:15;;;;;;;0.27;0.10;;;4.90;99.90;;;;;;4822691;29;20033;-87
2023/02/02 03:58:41;;;;;;;0.90;0.13;;;4.80;99.90;;;;;;4823487;29;20022;-87
2023/02/02 04:01:10;;;;;;;0.40;0.10;;;4.80;99.90;;;;;;4821384;29;20105;-88
2023/02/02 04:03:36;;;;;;;0.80;0.20;;;4.80;99.90;;;;;;4823298;29;20031;-87
2023/02/02 04:06:02;;;;;;;4.73;0.50;;;4.80;99.90;;;;;;4822402;29;20092;-87
2023/02/02 04:08:28;;;;;;;2.03;0.27;;;4.80;99.90;;;;;;4821571;29;20039;-88
2023/02/02 04:10:53;;;;;;;1.23;0.40;;;4.80;99.90;;;;;;4822015;29;20030;-87
2023/02/02 04:13:19;;;;;;;1.23;0.20;;;4.80;99.90;;;;;;4824719;29;20214;-87
2023/02/02 04:15:45;;;;;;;2.70;0.30;;;4.80;99.90;;;;;;4819362;29;20030;-87
2023/02/02 04:18:10;;;;;;;1.80;0.30;;;4.80;99.90;;;;;;4819151;29;20037;-88
2023/02/02 04:20:36;;;;;;;0.10;0.03;;;4.80;99.90;;;;;;4824326;29;20054;-88
2023/02/02 04:23:02;;;;;;;0.77;0.47;;;4.80;99.90;;;;;;4821898;29;20038;-87
2023/02/02 04:25:27;;;;;;;1.77;0.30;;;4.80;99.90;;;;;;4821377;29;20112;-87
2023/02/02 04:27:53;;;;;;;0.73;0.23;;;4.80;99.90;;;;;;4823299;29;20042;-87
2023/02/02 04:30:19;;;;;;;0.33;0.10;;;4.80;99.90;;;;;;4822709;29;20049;-88
2023/02/02 04:32:45;;;;;;;0.93;0.30;;;4.90;99.90;;;;;;4820226;29;20567;-87
2023/02/02 04:35:10;;;;;;;0.80;0.23;;;4.80;99.90;;;;;;4821718;29;20037;-87
2023/02/02 04:37:36;;;;;;;0.67;0.20;;;4.80;99.90;;;;;;4821798;29;20055;-87
2023/02/02 04:40:03;;;;;;;1.73;0.63;;;4.90;99.90;;;;;;4822587;29;20033;-87
2023/02/02 04:42:31;;;;;;;2.00;0.10;;;4.90;99.90;;;;;;4819838;29;20042;-87
2023/02/02 04:44:59;;;;;;;0.20;0.03;;;4.90;99.90;;;;;;4825609;29;20174;-87
2023/02/02 04:47:24;;;;;;;0.93;0.17;;;4.90;99.90;;;;;;4822127;29;20098;-87
2023/02/02 04:49:50;;;;;;;1.77;0.30;;;4.90;99.90;;;;;;4822979;29;20444;-87
2023/02/02 04:52:16;;;;;;;3.73;0.40;;;4.90;99.90;;;;;;4821308;29;20062;-85
2023/02/02 04:54:44;;;;;;;0.40;0.20;;;5.10;99.90;;;;;;4822791;29;20022;-89
2023/02/02 04:57:11;;;;;;;1.50;0.20;;;5.40;99.90;;;;;;4829248;29;20091;-85
2023/02/02 04:59:39;;;;;;;0.40;0.10;;;5.50;99.90;;;;;;4834504;29;20391;-86
2023/02/02 05:02:05;;;;;;;0.40;0.20;;;4.80;99.90;;;;;;4830748;29;20035;-85
2023/02/02 05:04:30;;;;;;;0.33;0.20;;;3.90;99.90;;;;;;4826765;29;20035;-86
2023/02/02 05:06:59;;;;;;;0.57;0.20;;;4.80;99.90;;;;;;4822666;29;20098;-86
2023/02/02 05:09:25;;;;;;;0.50;0.20;;;4.80;99.90;;;;;;4822968;29;20042;-87
2023/02/02 05:11:50;;;;;;;1.60;0.30;;;4.80;99.90;;;;;;4821428;29;20419;-86
2023/02/02 05:14:17;;;;;;;3.60;0.27;;;5.70;99.90;;;;;;4822639;29;20039;-86
2023/02/02 05:16:43;;;;;;;0.97;0.20;;;4.80;99.90;;;;;;4818866;29;20038;-86
2023/02/02 05:19:10;;;;;;;1.17;0.20;;;4.80;99.90;;;;;;4819140;29;20084;-87
2023/02/02 05:21:36;;;;;;;1.70;0.30;;;5.80;99.90;;;;;;4824809;29;20400;-87
2023/02/02 05:24:02;;;;;;;1.80;0.20;;;5.50;99.90;;;;;;4821767;29;20041;-87
2023/02/02 05:26:28;;;;;;;1.40;0.13;;;4.90;99.90;;;;;;4823937;29;20022;-86
2023/02/02 05:28:55;;;;;;;4.10;0.47;;;5.30;99.90;;;;;;4823659;29;20540;-87
2023/02/02 05:31:25;;;;;;;1.90;0.37;;;4.90;99.90;;;;;;4826667;29;20031;-87
2023/02/02 05:33:51;;;;;;;2.87;0.23;;;5.30;99.90;;;;;;4825216;29;20024;-87
2023/02/02 05:36:17;;;;;;;1.03;0.10;;;5.80;99.90;;;;;;4822684;29;20180;-87
2023/02/02 05:38:42;;;;;;;1.13;0.20;;;4.90;99.90;;;;;;4826324;29;20022;-87
2023/02/02 05:41:08;;;;;;;1.53;0.30;;;5.70;99.90;;;;;;4821168;29;20030;-86
2023/02/02 05:43:34;;;;;;;1.93;0.20;;;5.60;99.90;;;;;;4825603;29;20019;-87
2023/02/02 05:46:00;;;;;;;2.43;0.30;;;5.80;99.90;;;;;;4825653;29;20044;-86
2023/02/02 05:48:29;;;;;;;0.97;0.40;;;5.10;99.90;;;;;;4824604;29;20030;-87
2023/02/02 05:51:03;;;;;;;1.40;0.43;;;5.00;99.90;;;;;;4821382;29;20030;-87
2023/02/02 05:53:30;;;;;;;3.77;0.37;;;4.90;99.90;;;;;;4824376;29;20404;-86
2023/02/02 05:55:56;;;;;;;1.13;0.30;;;4.90;99.90;;;;;;4825131;29;20034;-86
2023/02/02 05:58:22;;;;;;;3.87;0.93;;;4.90;99.90;;;;;;4820111;29;20113;-86
2023/02/02 06:00:48;;;;;;;1.17;0.30;;;4.90;99.90;;;;;;4821324;29;20023;-87
2023/02/02 06:03:14;;;;;;;1.20;0.30;;;4.90;99.90;;;;;;4822717;29;20041;-87
2023/02/02 06:05:40;;;;;;;2.10;0.30;;;5.00;99.90;;;;;;4823165;29;20035;-87
2023/02/02 06:08:05;;;;;;;1.20;0.27;;;5.00;99.90;;;;;;4824831;29;20062;-88
2023/02/02 06:10:31;;;;;;;1.67;0.40;;;5.00;99.90;;;;;;4823898;29;20054;-87
2023/02/02 06:12:57;;;;;;;3.40;0.13;;;5.00;99.90;;;;;;4822655;29;20113;-86
2023/02/02 06:15:23;;;;;;;1.73;0.43;;;5.00;99.90;;;;;;4822741;29;20573;-87
2023/02/02 06:17:49;;;;;;;2.20;0.53;;;5.00;99.90;;;;;;4818484;29;20031;-87
2023/02/02 06:20:14;;;;;;;1.10;0.20;;;5.20;99.90;;;;;;4820344;29;20038;-88
2023/02/02 06:22:41;;;;;;;1.83;0.57;;;4.70;99.90;;;;;;4822707;29;20721;-87
2023/02/02 06:25:07;;;;;;;2.00;0.30;;;4.90;99.90;;;;;;4823092;29;20514;-86
2023/02/02 06:27:33;;;;;;;3.20;0.20;;;4.90;99.90;;;;;;4823950;29;20026;-87
2023/02/02 06:29:59;;;;;;;2.47;0.30;;;5.00;99.90;;;;;;4822677;29;20369;-85
2023/02/02 06:32:24;;;;;;;3.30;0.40;;;5.00;99.90;;;;;;4826699;29;20038;-87
2023/02/02 06:34:50;;;;;;;2.77;0.30;;;5.00;99.90;;;;;;4815684;29;20037;-87
2023/02/02 06:37:16;;;;;;;1.13;0.27;;;5.00;99.90;;;;;;4823996;29;20099;-87
2023/02/02 06:39:41;;;;;;;0.93;0.27;;;5.00;99.90;;;;;;4821935;29;20023;-87
2023/02/02 06:42:07;;;;;;;0.97;0.40;;;5.00;99.90;;;;;;4822225;29;20031;-87
2023/02/02 06:44:32;;;;;;;1.43;0.43;;;4.90;99.90;;;;;;4822962;29;20023;-87
2023/02/02 06:46:58;;;;;;;1.07;0.30;;;4.90;99.90;;;;;;4820144;29;20038;-87
2023/02/02 06:49:24;;;;;;;0.70;0.40;;;5.00;99.90;;;;;;4823329;29;20113;-87
2023/02/02 06:51:49;;;;;;;0.73;0.40;;;5.00;99.90;;;;;;4822009;29;20655;-88
2023/02/02 06:54:15;;;;;;;4.30;0.60;;;4.90;99.90;;;;;;4818903;29;20118;-88
2023/02/02 06:57:02;;;;;;;;;;;;;;;;;;;;;
2023/02/02 06:59:45;;;;;;;;;;;;;;;;;;;;;
2023/02/02 07:02:25;;;;;;;1.43;0.23;;;5.10;99.90;;;;;;4825041;29;20105;-88
2023/02/02 07:05:24;;;;;;;;;;;;;;;;;;;;;
2023/02/02 07:08:23;;;;;;;1.90;0.30;;;4.90;99.90;;;;;;4809116;29;20121;-87
2023/02/02 07:14:51;;;;;;;1.97;0.47;;;4.80;99.90;;;;;;4823027;29;20034;-88
2023/02/02 07:17:48;;;;;;;2.50;0.30;;;4.40;99.90;;;;;;4821562;29;20035;-88
2023/02/02 07:21:05;;;;;;;0.50;0.17;;;4.90;99.90;;;;;;4821269;29;20034;-88
2023/02/02 07:24:20;;;;;;;;;;;;;;;;;;;;;
2023/02/02 07:27:11;;;;;;;1.60;0.30;;;5.10;99.90;;;;;;4824889;29;20026;-88
2023/02/02 07:30:02;;;;;;;0.57;0.10;;;5.30;99.90;;;;;;4823399;29;20445;-88
2023/02/02 07:32:56;;;;;;;0.70;0.20;;;4.90;99.90;;;;;;4824502;29;20038;-88
2023/02/02 07:35:46;;;;;;;2.17;0.20;;;4.80;99.90;;;;;;4835977;29;20092;-88
2023/02/02 07:38:26;;;;;;;1.10;0.37;;;5.60;99.90;;;;;;4821336;29;20164;-88
2023/02/02 07:41:46;;;;;;;0.53;0.20;;;5.80;99.90;;;;;;4822848;29;20462;-88
2023/02/02 07:44:47;;;;;;;3.77;0.40;;;4.90;99.90;;;;;;4799790;29;20034;-88
2023/02/02 07:47:13;;;;;;;1.67;0.25;;;4.90;99.90;;;;;;4822470;29;20022;-88
2023/02/02 07:49:39;;;;;;;0.77;0.30;;;4.90;99.90;;;;;;4822925;29;20034;-87
2023/02/02 07:52:10;;;;;;;0.83;0.20;;;4.60;99.90;;;;;;4821935;29;20057;-87
2023/02/02 07:54:36;;;;;;;2.30;0.50;;;5.60;99.90;;;;;;4817553;29;20034;-88
2023/02/02 07:57:06;;;;;;;2.30;0.37;;;4.60;99.90;;;;;;4820825;29;20050;-88
2023/02/02 07:59:32;;;;;;;1.90;0.43;;;4.70;99.90;;;;;;4821102;29;20026;-88
2023/02/02 08:02:09;;;;;;;1.60;0.40;;;5.50;99.90;;;;;;4817742;29;20539;-88
2023/02/02 08:04:34;;;;;;;1.47;0.53;;;5.90;99.90;;;;;;4813956;29;20034;-87
2023/02/02 08:07:03;;;;;;;3.97;0.40;;;5.00;99.90;;;;;;4817697;29;20785;-88
2023/02/02 08:09:34;;;;;;;1.37;0.30;;;5.00;99.90;;;;;;4819743;29;20038;-87
2023/02/02 08:12:02;;;;;;;1.83;0.30;;;5.00;99.90;;;;;;4821105;29;20733;-89
2023/02/02 08:14:28;;;;;;;1.80;0.17;;;5.00;99.90;;;;;;4821247;29;20030;-89
2023/02/02 08:16:54;;;;;;;1.23;0.30;;;5.00;99.90;;;;;;4821704;29;20034;-89
2023/02/02 08:19:20;;;;;;;1.27;0.47;;;5.00;99.90;;;;;;4821404;29;20030;-89
2023/02/02 08:21:45;;;;;;;3.53;0.40;;;5.10;99.90;;;;;;4820479;29;20030;-89
2023/02/02 08:24:11;;;;;;;2.60;0.30;;;5.10;99.90;;;;;;4819766;29;20503;-88
2023/02/02 08:26:37;;;;;;;3.50;0.43;;;5.10;99.90;;;;;;4810559;29;20063;-88
2023/02/02 08:29:06;;;;;;;2.57;0.40;;;5.00;99.90;;;;;;4818654;29;20034;-88
2023/02/02 08:31:34;;;;;;;1.03;0.40;;;5.00;99.90;;;;;;4820280;29;20034;-88
2023/02/02 08:34:00;;;;;;;2.20;0.40;;;4.90;99.90;;;;;;4817726;29;20038;-89
2023/02/02 08:36:28;;;;;;;1.20;0.37;;;4.80;99.90;;;;;;4817080;29;20130;-88
2023/02/02 08:38:54;;;;;;;0.57;0.20;;;4.80;99.90;;;;;;4812207;29;20035;-87
2023/02/02 08:41:21;;;;;;;2.40;0.40;;;4.80;99.90;;;;;;4815024;29;20067;-86
2023/02/02 08:43:48;;;;;;;4.07;0.40;;;4.80;99.90;;;;;;4816699;29;20535;-87
2023/02/02 08:46:15;;;;;;;0.90;0.20;;;4.70;99.90;;;;;;4819746;29;20496;-87
2023/02/02 08:48:41;;;;;;;2.30;0.40;;;4.80;99.90;;;;;;4818675;29;20087;-87
2023/02/02 08:51:09;;;;;;;1.93;0.20;;;4.80;99.90;;;;;;4816828;29;20106;-86
2023/02/02 08:53:35;;;;;;;0.80;0.30;;;4.80;99.90;;;;;;4817870;29;20423;-88
2023/02/02 08:56:09;;;;;;;3.73;0.40;;;4.70;99.90;;;;;;4824206;29;20109;-88
2023/02/02 08:58:35;;;;;;;1.20;0.40;;;4.80;99.90;;;;;;4831973;29;20022;-88
2023/02/02 09:01:11;;;;;;;4.57;0.73;;;4.80;99.90;;;;;;4831024;29;20446;-87
2023/02/02 09:03:39;;;;;;;2.30;0.40;;;4.80;99.90;;;;;;4826462;29;20396;-87
2023/02/02 09:06:06;;;;;;;0.80;0.30;;;4.80;99.90;;;;;;4841379;29;20030;-88
2023/02/02 09:08:32;;;;;;;2.63;0.47;;;4.90;99.90;;;;;;4844001;29;20042;-87
2023/02/02 09:11:10;;;;;;;1.70;0.40;;;4.90;99.90;;;;;;4840642;29;20026;-87
2023/02/02 09:13:37;;;;;;;0.70;0.40;;;4.90;99.90;;;;;;4839199;29;20022;-86
2023/02/02 09:16:04;;;;;;;1.67;0.50;;;5.00;99.90;;;;;;4843548;29;20026;-87
2023/02/02 09:18:30;;;;;;;1.13;0.40;;;5.10;99.90;;;;;;4843645;29;20022;-88
2023/02/02 09:21:02;;;;;;;0.73;0.20;;;5.10;99.90;;;;;;4842359;29;20030;-87
2023/02/02 09:23:35;;;;;;;1.05;0.40;;;5.10;99.90;;;;;;4848386;29;20026;-88
2023/02/02 09:26:37;;;;;;;5.33;0.53;;;5.90;99.90;;;;;;4837455;29;20038;-88
2023/02/02 09:29:05;;;;;;;1.57;0.30;;;5.30;99.90;;;;;;4827375;29;20030;-88
2023/02/02 09:31:37;;;;;;;2.03;0.43;;;5.40;99.90;;;;;;4830434;29;20022;-87
2023/02/02 09:34:07;;;;;;;5.07;1.30;;;5.40;99.90;;;;;;4818714;29;20023;-87
2023/02/02 09:36:33;;;;;;;2.70;0.40;;;5.50;99.90;;;;;;4823760;29;20026;-88
2023/02/02 09:38:59;;;;;;;8.13;0.60;;;5.50;99.90;;;;;;4823769;29;20437;-87
2023/02/02 09:41:40;;;;;;;5.87;0.50;;;5.50;99.90;;;;;;4817538;29;20035;-87
2023/02/02 09:44:53;;;;;;;1.77;0.57;;;5.70;99.90;;;;;;4821663;29;20511;-88
2023/02/02 09:47:29;;;;;;;2.37;0.60;;;5.60;99.90;;;;;;4829232;29;20121;-88
2023/02/02 09:50:12;;;;;;;1.57;0.40;;;5.70;99.90;;;;;;4835677;29;20034;-87
2023/02/02 09:52:49;;;;;;;1.43;0.47;;;5.70;99.90;;;;;;4820254;29;20030;-87
2023/02/02 09:55:21;;;;;;;4.50;0.60;;;5.70;99.90;;;;;;4824134;29;20164;-87
2023/02/02 09:58:00;;;;;;;3.05;0.40;;;5.70;99.90;;;;;;4814510;29;20026;-86
2023/02/02 10:00:40;;;;;;;2.10;0.40;;;5.70;99.90;;;;;;4822806;29;20022;-88
2023/02/02 10:03:18;;;;;;;0.60;0.40;;;5.70;99.90;;;;;;4820641;29;20022;-87
2023/02/02 10:06:06;;;;;;;1.70;0.43;;;5.70;99.90;;;;;;4813657;29;20038;-86
2023/02/02 10:08:40;;;;;;;5.03;0.40;;;5.70;99.90;;;;;;4832144;29;20094;-87
2023/02/02 10:11:51;;;;;;;1.03;0.30;;;5.70;99.90;;;;;;4822690;29;20049;-87
2023/02/02 10:14:28;;;;;;;4.07;0.33;;;5.70;99.90;;;;;;4828883;29;20043;-88
2023/02/02 10:17:02;;;;;;;4.70;0.70;;;5.60;99.90;;;;;;4809241;29;20503;-87
2023/02/02 10:19:27;;;;;;;1.43;0.37;;;5.80;99.90;;;;;;4812009;29;20126;-87
2023/02/02 10:22:01;;;;;;;2.10;0.60;;;5.70;99.90;;;;;;4825827;29;20105;-87
2023/02/02 10:24:28;;;;;;;1.47;0.33;;;5.70;99.90;;;;;;4813078;29;20029;-87
2023/02/02 10:27:04;;;;;;;2.80;0.93;;;5.70;99.90;;;;;;4819525;29;20079;-88
2023/02/02 10:29:56;;;;;;;1.33;0.40;;;5.60;99.90;;;;;;4818742;29;20026;-87
2023/02/02 10:32:32;;;;;;;0.47;0.28;;;5.60;99.90;;;;;;4819038;29;20032;-87
2023/02/02 10:34:58;;;;;;;1.93;0.60;;;5.70;99.90;;;;;;4811351;29;20027;-88
2023/02/02 10:37:32;;;;;;;3.83;0.40;;;5.70;99.90;;;;;;4819817;29;20053;-87
2023/02/02 10:40:22;;;;;;;0.50;0.30;;;5.70;99.90;;;;;;4821032;29;20026;-88
2023/02/02 10:45:50;;;;;;;1.93;0.33;;;5.70;99.90;;;;;;4809680;29;20121;-86
2023/02/02 10:48:19;;;;;;;4.10;0.40;;;5.70;99.90;;;;;;4813444;29;20045;-87
2023/02/02 10:50:49;;;;;;;2.93;0.60;;;5.70;99.90;;;;;;4819827;29;20117;-87
2023/02/02 10:53:15;;;;;;;1.33;0.40;;;5.70;99.90;;;;;;4819838;29;20125;-87
2023/02/02 10:55:58;;;;;;;4.30;0.70;;;5.70;99.90;;;;;;4821163;29;20038;-88
2023/02/02 10:58:49;;;;;;;1.40;0.40;;;5.70;99.90;;;;;;4836248;29;20034;-88
2023/02/02 11:01:16;;;;;;;0.97;0.30;;;5.70;99.90;;;;;;4835891;29;20038;-87
2023/02/02 11:03:42;;;;;;;2.53;0.57;;;5.70;99.90;;;;;;4821955;29;20050;-87
2023/02/02 11:08:59;;;;;;;1.83;0.30;;;5.60;99.90;;;;;;4820628;29;20086;-88
2023/02/02 11:11:31;;;;;;;1.03;0.40;;;5.60;99.90;;;;;;4820793;29;20057;-87
2023/02/02 11:14:11;;;;;;;0.70;0.30;;;5.60;99.90;;;;;;4819815;29;20609;-87
2023/02/02 11:16:41;;;;;;;1.00;0.30;;;5.60;99.90;;;;;;4818707;29;20042;-87
2023/02/02 11:19:28;;;;;;;0.90;0.30;;;5.60;99.90;;;;;;4819254;29;20018;-87
2023/02/02 11:22:02;;;;;;;2.40;0.53;;;5.60;99.90;;;;;;4818562;29;20018;-88
2023/02/02 11:24:45;;;;;;;0.80;0.40;;;5.50;99.90;;;;;;4821243;29;20022;-87
2023/02/02 11:27:19;;;;;;;1.80;0.30;;;5.50;99.90;;;;;;4820092;29;20434;-87
2023/02/02 11:29:51;;;;;;;1.13;0.30;;;5.50;99.90;;;;;;4821780;29;20030;-88
2023/02/02 11:32:37;;;;;;;1.80;0.32;;;5.40;99.90;;;;;;4820317;29;20026;-87
2023/02/02 11:35:03;;;;;;;6.00;1.13;;;5.50;99.90;;;;;;4811067;29;20123;-88
2023/02/02 11:37:38;;;;;;;1.80;0.40;;;5.50;99.90;;;;;;4835315;29;20113;-87
2023/02/02 11:40:44;;;;;;;3.03;0.50;;;5.60;99.90;;;;;;4820710;29;20022;-88
2023/02/02 11:43:33;;;;;;;1.70;0.40;;;5.70;99.90;;;;;;4817895;29;20068;-88
2023/02/02 11:46:04;;;;;;;0.27;0.10;;;5.70;99.90;;;;;;4819242;29;20310;-88
2023/02/02 11:49:11;;;;;;;1.58;0.40;;;5.70;99.90;;;;;;4822232;29;20122;-88
2023/02/02 11:51:38;;;;;;;3.33;0.60;;;5.70;99.90;;;;;;4820035;29;20095;-87
2023/02/02 11:54:16;;;;;;;3.00;0.50;;;5.70;99.90;;;;;;4821900;29;20030;-88
2023/02/02 11:56:47;;;;;;;2.10;0.30;;;5.70;99.90;;;;;;4836292;29;20496;-86
2023/02/02 11:59:40;;;;;;;1.37;0.60;;;5.80;99.90;;;;;;4818503;29;20026;-87
2023/02/02 12:02:11;;;;;;;0.70;0.30;;;5.80;99.90;;;;;;4817639;29;20030;-87
2023/02/02 12:04:37;;;;;;;0.77;0.30;;;5.70;99.90;;;;;;4821826;29;20029;-87
2023/02/02 12:07:27;;;;;;;1.57;0.50;;;5.70;99.90;;;;;;4817682;29;20046;-87
2023/02/02 12:09:59;;;;;;;1.77;0.60;;;5.80;99.90;;;;;;4820416;29;20515;-87
2023/02/02 12:13:02;;;;;;;2.88;0.30;;;5.70;99.90;;;;;;4821877;29;20035;-88
2023/02/02 12:15:46;;;;;;;2.80;0.43;;;5.70;99.90;;;;;;4822190;29;20125;-87
2023/02/02 12:18:59;;;;;;;1.43;0.40;;;5.70;99.90;;;;;;4817675;29;20427;-88
2023/02/02 12:22:06;;;;;;;1.03;0.33;;;5.70;99.90;;;;;;4807519;29;20038;-87
2023/02/02 12:24:41;;;;;;;1.63;0.30;;;5.70;99.90;;;;;;4818488;29;20635;-87
2023/02/02 12:27:43;;;;;;;0.70;0.20;;;5.70;99.90;;;;;;4821115;29;20111;-86
2023/02/02 12:30:31;;;;;;;2.65;0.60;;;5.70;99.90;;;;;;4810399;29;20067;-86
2023/02/02 12:33:11;;;;;;;2.83;0.30;;;5.70;99.90;;;;;;4817930;29;20492;-86
2023/02/02 12:36:17;;;;;;;2.00;0.60;;;5.70;99.90;;;;;;4815165;29;20043;-87
2023/02/02 12:39:03;;;;;;;1.47;0.40;;;5.70;99.90;;;;;;4831859;29;20670;-87
2023/02/02 12:42:11;;;;;;;2.67;0.40;;;5.70;99.90;;;;;;4822439;29;20034;-87
2023/02/02 12:45:00;;;;;;;0.60;0.20;;;5.70;99.90;;;;;;4816375;29;20436;-86
2023/02/02 12:47:37;;;;;;;1.80;0.67;;;5.70;99.90;;;;;;4821002;29;20034;-86
2023/02/02 12:50:35;;;;;;;1.80;0.40;;;5.70;99.90;;;;;;4837309;29;20034;-87
2023/02/02 12:53:26;;;;;;;2.93;0.23;;;5.70;99.90;;;;;;4822776;29;20038;-87
2023/02/02 12:56:23;;;;;;;0.23;0.13;;;5.70;99.90;;;;;;4836343;29;20046;-86
2023/02/02 12:59:04;;;;;;;0.97;0.40;;;5.70;99.90;;;;;;4819549;29;20065;-87
2023/02/02 13:01:48;;;;;;;1.80;0.43;;;5.60;99.90;;;;;;4822098;29;20053;-86
2023/02/02 13:04:38;;;;;;;1.00;0.20;;;5.70;99.90;;;;;;4837726;29;20396;-87
2023/02/02 13:07:41;;;;;;;2.63;0.43;;;5.60;99.90;;;;;;4832978;29;20091;-86
2023/02/02 13:10:22;;;;;;;1.60;0.30;;;5.60;99.90;;;;;;4817766;29;20511;-86
2023/02/02 13:12:53;;;;;;;3.37;0.80;;;5.50;99.90;;;;;;4816197;29;20037;-86
2023/02/02 13:15:21;;;;;;;1.33;0.37;;;5.50;99.90;;;;;;4822386;29;20416;-86
2023/02/02 13:18:00;;;;;;;1.60;0.43;;;5.50;99.90;;;;;;4822095;29;20030;-87
2023/02/02 13:20:40;;;;;;;4.93;0.40;;;5.50;99.90;;;;;;4816664;29;20109;-86
2023/02/02 13:23:18;;;;;;;4.33;0.60;;;5.40;99.90;;;;;;4820396;29;20031;-86
2023/02/02 13:25:52;;;;;;;2.47;0.67;;;5.50;99.90;;;;;;4826245;29;20065;-86
2023/02/02 13:28:35;;;;;;;3.53;0.40;;;5.50;99.90;;;;;;4822993;29;20038;-87
2023/02/02 13:31:06;;;;;;;1.90;0.30;;;5.50;99.90;;;;;;4819233;29;20031;-86
2023/02/02 13:33:35;;;;;;;1.73;0.37;;;5.70;99.90;;;;;;4821383;29;20095;-87
2023/02/02 13:36:16;;;;;;;4.23;0.57;;;5.40;99.90;;;;;;4812793;29;20034;-86
2023/02/02 13:38:44;;;;;;;2.83;0.32;;;5.40;99.90;;;;;;4819594;29;20034;-87
2023/02/02 13:41:12;;;;;;;0.50;0.20;;;5.50;99.90;;;;;;4823111;29;20056;-86
2023/02/02 13:43:59;;;;;;;2.43;0.53;;;5.50;99.90;;;;;;4823133;29;20026;-86
2023/02/02 13:46:50;;;;;;;1.50;0.40;;;5.50;99.90;;;;;;4819067;29;20126;-87
2023/02/02 13:49:40;;;;;;;1.50;0.40;;;5.60;99.90;;;;;;4822403;29;20117;-87
2023/02/02 13:52:18;;;;;;;3.50;0.67;;;5.70;99.90;;;;;;4820086;29;20049;-87
2023/02/02 13:54:48;;;;;;;1.00;0.63;;;5.70;99.90;;;;;;4822721;29;20026;-88
2023/02/02 13:57:55;;;;;;;1.90;0.40;;;5.70;99.90;;;;;;4823363;29;20042;-88
2023/02/02 14:00:21;;;;;;;2.07;0.50;;;5.70;99.90;;;;;;4801581;29;20142;-88